Time;durP1;ratioP1;P1;durP2;ratioP2;P2;SDS_P1;SDS_P2;PMS_P1;PMS_P2;Temp;Humidity;BMP_temperature;BMP_pressure;BME280_temperature;BME280_humidity;BME280_pressure;Samples;Min_cycle;Max_cycle;Signal;HPM_P1;HPM_P2
2023/08/11 04:06:51;;;;;;;;;7.33;7.33;;;;;;;;6118335;31;10000170;-55
2023/08/11 04:12:55;;;;;;;;;10.33;10.33;;;;;;;;6490788;39;8918;-56
2023/08/11 04:18:58;;;;;;;;;14.67;12.67;;;;;;;;6490342;39;8973;-55
2023/08/11 04:25:02;;;;;;;;;11.67;11.33;;;;;;;;6490064;31;8870;-58
2023/08/11 04:31:07;;;;;;;;;14.33;12.00;;;;;;;;6490290;39;8938;-55
2023/08/11 04:37:10;;;;;;;;;5.67;4.67;;;;;;;;6490160;31;8796;-55
2023/08/11 04:43:13;;;;;;;;;10.67;10.33;;;;;;;;6490241;47;8859;-56
2023/08/11 04:49:17;;;;;;;;;11.67;11.67;;;;;;;;6489880;39;8926;-57
2023/08/11 04:55:20;;;;;;;;;12.33;12.00;;;;;;;;6489790;39;8882;-55
2023/08/11 05:01:23;;;;;;;;;13.67;12.67;;;;;;;;6489829;39;8901;-55
2023/08/11 05:07:25;;;;;;;;;14.00;12.67;;;;;;;;6491668;39;8873;-52
2023/08/11 05:13:28;;;;;;;;;12.75;12.75;;;;;;;;6490612;39;9575;-57
2023/08/11 05:19:31;;;;;;;;;12.33;12.33;;;;;;;;6490931;39;8856;-56
2023/08/11 05:25:33;;;;;;;;;15.00;15.00;;;;;;;;6490510;47;8880;-56
2023/08/11 05:31:36;;;;;;;;;14.25;12.00;;;;;;;;6490652;31;9570;-55
2023/08/11 05:37:39;;;;;;;;;12.75;12.75;;;;;;;;6493366;39;8847;-56
2023/08/11 05:43:41;;;;;;;;;14.00;11.75;;;;;;;;6491548;39;8848;-56
2023/08/11 05:49:44;;;;;;;;;6.75;6.75;;;;;;;;6491420;39;8897;-56
2023/08/11 05:55:47;;;;;;;;;9.25;9.25;;;;;;;;6493283;39;8849;-55
2023/08/11 06:01:50;;;;;;;;;6.00;6.00;;;;;;;;6490511;39;8924;-57
2023/08/11 06:07:59;;;;;;;;;6.00;5.00;;;;;;;;6492416;46;8893;-55
2023/08/11 06:14:07;;;;;;;;;5.50;5.50;;;;;;;;6492365;39;8861;-56
2023/08/11 06:20:12;;;;;;;;;6.50;6.50;;;;;;;;6490805;46;8876;-56
2023/08/11 06:26:28;;;;;;;;;5.00;5.00;;;;;;;;6490715;39;8861;-56
2023/08/11 06:32:31;;;;;;;;;10.00;7.00;;;;;;;;6492203;39;9601;-61
2023/08/11 06:38:35;;;;;;;;;6.50;6.50;;;;;;;;6491650;46;8833;-58
2023/08/11 06:44:37;;;;;;;;;6.50;6.00;;;;;;;;6491332;39;8911;-58
2023/08/11 06:50:40;;;;;;;;;9.50;7.25;;;;;;;;6490849;46;9080;-58
2023/08/11 06:56:43;;;;;;;;;20.25;17.25;;;;;;;;6490814;39;8981;-58
2023/08/11 07:02:47;;;;;;;;;8.00;6.50;;;;;;;;6489870;31;9055;-59
2023/08/11 07:08:50;;;;;;;;;9.00;9.00;;;;;;;;6492265;39;9475;-58
2023/08/11 07:14:52;;;;;;;;;14.00;12.75;;;;;;;;6488558;39;8980;-59
2023/08/11 07:20:54;;;;;;;;;10.00;10.00;;;;;;;;6488387;39;8879;-59
2023/08/11 07:27:00;;;;;;;;;6.00;6.00;;;;;;;;6489219;39;8892;-60
2023/08/11 07:33:04;;;;;;;;;8.00;8.00;;;;;;;;6489966;39;8946;-59
2023/08/11 07:39:09;;;;;;;;;8.50;8.50;;;;;;;;6488746;46;8833;-60
2023/08/11 07:45:25;;;;;;;;;16.25;16.25;;;;;;;;6490919;31;8998;-59
2023/08/11 07:51:28;;;;;;;;;19.75;19.75;;;;;;;;6490242;39;8877;-61
2023/08/11 07:57:32;;;;;;;;;11.00;9.50;;;;;;;;6488960;31;9548;-61
2023/08/11 08:03:35;;;;;;;;;9.00;7.75;;;;;;;;6489778;39;8955;-59
2023/08/11 08:09:39;;;;;;;;;13.25;13.25;;;;;;;;6489237;31;8911;-59
2023/08/11 08:15:42;;;;;;;;;7.00;7.00;;;;;;;;6490308;31;9494;-59
2023/08/11 08:21:46;;;;;;;;;7.25;7.25;;;;;;;;6488221;31;8859;-60
2023/08/11 08:27:49;;;;;;;;;6.50;6.50;;;;;;;;6489602;31;8931;-58
2023/08/11 08:34:07;;;;;;;;;11.50;11.00;;;;;;;;6487068;46;8929;-59
2023/08/11 08:40:12;;;;;;;;;8.25;8.25;;;;;;;;6488652;39;9504;-59
2023/08/11 08:46:18;;;;;;;;;14.50;12.50;;;;;;;;6490065;31;8839;-58
2023/08/11 08:52:21;;;;;;;;;8.75;8.75;;;;;;;;6487251;47;8897;-58
2023/08/11 08:58:23;;;;;;;;;9.50;9.00;;;;;;;;6486946;47;8800;-58
2023/08/11 09:04:26;;;;;;;;;7.50;7.50;;;;;;;;6484756;47;8920;-57
2023/08/11 09:10:31;;;;;;;;;12.25;11.50;;;;;;;;6489077;46;9066;-59
2023/08/11 09:16:39;;;;;;;;;9.75;9.50;;;;;;;;6490560;46;8860;-59
2023/08/11 09:22:42;;;;;;;;;14.00;14.00;;;;;;;;6490119;31;8899;-61
2023/08/11 09:28:44;;;;;;;;;14.50;14.25;;;;;;;;6489828;46;8837;-60
2023/08/11 09:34:46;;;;;;;;;9.50;9.25;;;;;;;;6490534;39;8879;-60
2023/08/11 09:40:49;;;;;;;;;11.25;10.00;;;;;;;;6489460;39;8938;-58
2023/08/11 09:46:52;;;;;;;;;11.25;10.50;;;;;;;;6489635;39;8867;-61
2023/08/11 09:52:59;;;;;;;;;7.50;7.50;;;;;;;;6488818;39;9136;-58
2023/08/11 09:59:03;;;;;;;;;9.50;9.50;;;;;;;;6489825;39;8930;-60
2023/08/11 10:05:08;;;;;;;;;9.00;9.00;;;;;;;;6490410;31;8865;-58
2023/08/11 10:11:12;;;;;;;;;10.75;10.75;;;;;;;;6490011;31;9099;-59
2023/08/11 10:17:18;;;;;;;;;10.00;10.00;;;;;;;;6490599;31;8848;-58
2023/08/11 10:23:20;;;;;;;;;11.50;11.50;;;;;;;;6488999;39;8879;-58
2023/08/11 10:29:23;;;;;;;;;9.25;8.50;;;;;;;;6489320;39;8837;-61
2023/08/11 10:35:53;;;;;;;;;9.75;9.50;;;;;;;;6490610;39;8982;-58
2023/08/11 10:41:57;;;;;;;;;10.50;9.00;;;;;;;;6489856;46;8897;-59
2023/08/11 10:48:08;;;;;;;;;10.25;10.25;;;;;;;;6491435;39;8859;-58
2023/08/11 10:54:18;;;;;;;;;11.50;11.00;;;;;;;;6490152;39;8963;-58
2023/08/11 11:00:20;;;;;;;;;13.50;10.25;;;;;;;;6491420;39;8979;-59
2023/08/11 11:06:23;;;;;;;;;10.25;9.25;;;;;;;;6490552;39;9024;-59
2023/08/11 11:12:26;;;;;;;;;22.75;22.75;;;;;;;;6488911;46;9076;-62
2023/08/11 11:18:31;;;;;;;;;10.00;10.00;;;;;;;;6489884;31;8908;-61
2023/08/11 11:24:33;;;;;;;;;20.75;19.00;;;;;;;;6486588;39;9590;-60
2023/08/11 11:30:37;;;;;;;;;11.50;9.75;;;;;;;;6487458;31;9646;-58
2023/08/11 11:36:40;;;;;;;;;9.00;9.00;;;;;;;;6487375;46;8890;-60
2023/08/11 11:42:42;;;;;;;;;9.50;8.75;;;;;;;;6487570;39;8892;-59
2023/08/11 11:48:51;;;;;;;;;10.50;10.50;;;;;;;;6487891;39;8954;-60
2023/08/11 11:54:54;;;;;;;;;6.00;6.00;;;;;;;;6488997;39;8881;-58
2023/08/11 12:01:18;;;;;;;;;6.00;6.00;;;;;;;;6488647;39;9504;-59
2023/08/11 12:07:33;;;;;;;;;7.75;7.75;;;;;;;;6486894;39;9417;-59
2023/08/11 12:13:40;;;;;;;;;9.50;8.75;;;;;;;;6487488;46;8951;-58
2023/08/11 12:19:46;;;;;;;;;6.00;6.00;;;;;;;;6487876;39;9862;-59
